Time;durP1;ratioP1;P1;durP2;ratioP2;P2;SDS_P1;SDS_P2;PMS_P1;PMS_P2;Temp;Humidity;BMP_temperature;BMP_pressure;BME280_temperature;BME280_humidity;BME280_pressure;Samples;Min_cycle;Max_cycle;Signal;HPM_P1;HPM_P2
2023/09/16 00:00:09;;;;;;;19.67;14.45;;;13.20;99.90;;;;;;5026865;28;20046;-64
2023/09/16 00:02:36;;;;;;;15.25;13.60;;;13.20;99.90;;;;;;5001083;28;20484;-64
2023/09/16 00:05:02;;;;;;;16.42;14.73;;;13.20;99.90;;;;;;4986173;28;20057;-64
2023/09/16 00:07:29;;;;;;;17.83;15.93;;;13.20;99.90;;;;;;4996203;28;20132;-64
2023/09/16 00:09:58;;;;;;;16.63;14.50;;;13.20;99.90;;;;;;5014443;28;20428;-65
2023/09/16 00:12:24;;;;;;;15.05;13.45;;;13.20;99.90;;;;;;4998740;28;20411;-64
2023/09/16 00:14:50;;;;;;;23.00;15.23;;;13.20;99.90;;;;;;4992596;28;20038;-64
2023/09/16 00:17:17;;;;;;;15.18;13.50;;;13.20;99.90;;;;;;4999028;28;20034;-64
2023/09/16 00:19:42;;;;;;;16.15;14.52;;;13.20;99.90;;;;;;5014940;28;20041;-65
2023/09/16 00:22:10;;;;;;;17.38;15.57;;;13.20;99.90;;;;;;5006331;28;20061;-64
2023/09/16 00:24:42;;;;;;;16.70;14.15;;;13.20;99.90;;;;;;4990803;28;20050;-64
2023/09/16 00:27:08;;;;;;;18.27;16.38;;;13.20;99.90;;;;;;5010130;28;20051;-64
2023/09/16 00:29:34;;;;;;;17.98;16.05;;;13.20;99.90;;;;;;5013305;28;20045;-64
2023/09/16 00:32:04;;;;;;;20.35;18.35;;;13.30;99.90;;;;;;5003339;28;20038;-64
2023/09/16 00:34:30;;;;;;;18.48;16.48;;;13.30;99.90;;;;;;5027400;28;20053;-64
2023/09/16 00:36:56;;;;;;;18.88;16.88;;;13.30;99.90;;;;;;4998346;28;20046;-64
2023/09/16 00:39:22;;;;;;;18.55;16.55;;;13.30;99.90;;;;;;4998683;28;20042;-64
2023/09/16 00:41:48;;;;;;;17.45;15.63;;;13.30;99.90;;;;;;5002856;28;20490;-64
2023/09/16 00:44:14;;;;;;;21.50;19.27;;;13.30;99.90;;;;;;5021620;28;20065;-64
2023/09/16 00:46:39;;;;;;;20.70;17.98;;;13.30;99.90;;;;;;5003959;28;20050;-64
2023/09/16 00:49:05;;;;;;;21.80;19.33;;;13.30;99.90;;;;;;5002792;28;20069;-64
2023/09/16 00:51:32;;;;;;;18.67;16.77;;;13.30;99.90;;;;;;5020155;28;20092;-64
2023/09/16 00:53:59;;;;;;;16.60;14.90;;;13.30;99.90;;;;;;4995351;28;20042;-64
2023/09/16 00:56:27;;;;;;;24.52;17.90;;;13.30;99.90;;;;;;5027465;28;20046;-64
2023/09/16 00:58:55;;;;;;;19.38;17.33;;;13.20;99.90;;;;;;4990759;28;20052;-64
2023/09/16 01:01:23;;;;;;;17.95;15.63;;;13.20;99.90;;;;;;5020088;28;20526;-64
2023/09/16 01:03:50;;;;;;;17.23;15.60;;;13.20;99.90;;;;;;5016922;28;20042;-65
2023/09/16 01:06:19;;;;;;;18.25;16.45;;;13.20;99.90;;;;;;5002144;28;20069;-64
2023/09/16 01:08:45;;;;;;;16.70;15.02;;;13.10;99.90;;;;;;5027148;28;20056;-64
2023/09/16 01:11:11;;;;;;;19.45;17.55;;;13.10;99.90;;;;;;4977695;28;20037;-64
2023/09/16 01:13:38;;;;;;;17.88;16.02;;;13.10;99.90;;;;;;4997323;28;20487;-64
2023/09/16 01:16:41;;;;;;;18.70;16.88;;;13.10;99.90;;;;;;4993163;28;20045;-64
2023/09/16 01:19:29;;;;;;;16.65;15.05;;;13.10;99.90;;;;;;5003008;28;20561;-64
2023/09/16 01:21:55;;;;;;;19.38;17.58;;;13.00;99.90;;;;;;5010395;28;20045;-64
2023/09/16 01:24:25;;;;;;;17.55;15.75;;;13.00;99.90;;;;;;4992227;28;20052;-64
2023/09/16 01:26:51;;;;;;;17.75;16.02;;;13.00;99.90;;;;;;5018271;28;20056;-64
2023/09/16 01:29:18;;;;;;;17.75;15.93;;;13.00;99.90;;;;;;5025815;28;20050;-64
2023/09/16 01:31:45;;;;;;;18.55;16.60;;;13.00;99.90;;;;;;5009683;28;20502;-64
2023/09/16 01:34:27;;;;;;;19.08;17.08;;;13.00;99.90;;;;;;4986015;28;20117;-64
2023/09/16 01:36:55;;;;;;;19.00;17.07;;;12.90;99.90;;;;;;5022279;28;20137;-64
2023/09/16 01:39:23;;;;;;;17.27;15.43;;;12.90;99.90;;;;;;5019161;28;20136;-64
2023/09/16 01:41:52;;;;;;;21.40;18.85;;;12.90;99.90;;;;;;4992531;28;20443;-64
2023/09/16 01:44:18;;;;;;;20.00;17.98;;;12.90;99.90;;;;;;5001302;28;20057;-64
2023/09/16 01:46:44;;;;;;;22.05;19.75;;;12.90;99.90;;;;;;5055752;28;20053;-64
2023/09/16 01:49:09;;;;;;;22.05;19.65;;;12.90;99.90;;;;;;4994668;28;20065;-64
2023/09/16 01:51:35;;;;;;;21.58;19.38;;;12.90;99.90;;;;;;5024949;28;20044;-64
2023/09/16 01:54:01;;;;;;;22.30;20.00;;;12.90;99.90;;;;;;5020734;28;20468;-65
2023/09/16 01:56:26;;;;;;;26.98;24.08;;;13.00;99.90;;;;;;4992667;28;20484;-65
2023/09/16 01:58:52;;;;;;;22.00;19.80;;;13.00;99.90;;;;;;5038619;28;20041;-64
2023/09/16 02:01:18;;;;;;;21.88;19.67;;;13.00;99.90;;;;;;5027270;28;20045;-64
2023/09/16 02:03:44;;;;;;;20.83;18.83;;;13.00;99.90;;;;;;5023572;28;20108;-64
2023/09/16 02:06:09;;;;;;;20.52;18.52;;;13.00;99.90;;;;;;5006092;28;20057;-64
2023/09/16 02:08:35;;;;;;;20.35;18.20;;;13.10;99.90;;;;;;5004788;28;21945;-64
2023/09/16 02:11:01;;;;;;;25.27;21.67;;;13.10;99.90;;;;;;5036743;28;20034;-64
2023/09/16 02:13:27;;;;;;;21.27;19.00;;;13.10;99.90;;;;;;5009364;28;20408;-64
2023/09/16 02:15:53;;;;;;;23.17;20.70;;;13.10;99.90;;;;;;5015903;28;20049;-64
2023/09/16 02:18:18;;;;;;;18.02;16.30;;;13.10;99.90;;;;;;4990790;28;20034;-64
2023/09/16 02:20:44;;;;;;;21.83;19.60;;;13.10;99.90;;;;;;5056716;28;20740;-65
2023/09/16 02:23:10;;;;;;;19.27;16.38;;;13.10;99.90;;;;;;5019265;28;20427;-64
2023/09/16 02:25:36;;;;;;;20.73;18.55;;;13.20;99.90;;;;;;5023825;28;20133;-65
2023/09/16 02:28:02;;;;;;;19.83;17.88;;;13.10;99.90;;;;;;5002724;28;20551;-64
2023/09/16 02:30:28;;;;;;;19.83;16.80;;;13.10;99.90;;;;;;5018267;28;20514;-64
2023/09/16 02:32:53;;;;;;;17.98;16.20;;;13.10;99.90;;;;;;4974119;28;20096;-64
2023/09/16 02:35:19;;;;;;;19.25;16.90;;;13.10;99.90;;;;;;5004319;28;20104;-64
2023/09/16 02:37:45;;;;;;;20.60;18.08;;;13.10;99.90;;;;;;4973693;28;20136;-64
2023/09/16 02:40:11;;;;;;;21.92;19.65;;;13.10;99.90;;;;;;5005833;28;20049;-64
2023/09/16 02:42:36;;;;;;;21.77;19.15;;;13.10;99.90;;;;;;4998217;28;20045;-64
2023/09/16 02:45:03;;;;;;;23.15;20.38;;;13.10;99.90;;;;;;5028823;28;20136;-64
2023/09/16 02:47:29;;;;;;;23.38;20.95;;;13.00;99.90;;;;;;5029281;28;20395;-64
2023/09/16 02:49:55;;;;;;;25.00;22.45;;;13.00;99.90;;;;;;4979461;28;20046;-64
2023/09/16 02:52:20;;;;;;;19.20;17.33;;;13.00;99.90;;;;;;5016115;28;20041;-65
2023/09/16 02:54:49;;;;;;;17.95;16.15;;;12.90;99.90;;;;;;4978933;28;20042;-64
2023/09/16 02:57:15;;;;;;;21.67;16.83;;;12.90;99.90;;;;;;4990501;28;20054;-64
2023/09/16 02:59:41;;;;;;;13.60;12.30;;;12.80;99.90;;;;;;5021894;28;20138;-64
2023/09/16 03:02:06;;;;;;;14.13;12.82;;;12.80;99.90;;;;;;5041256;28;20073;-65
2023/09/16 03:04:32;;;;;;;11.10;10.05;;;12.70;99.90;;;;;;5005729;28;20045;-64
2023/09/16 03:06:58;;;;;;;11.38;10.38;;;12.70;99.90;;;;;;5001126;28;20038;-64
2023/09/16 03:09:24;;;;;;;11.32;10.18;;;12.70;99.90;;;;;;5000964;28;20176;-64
2023/09/16 03:11:49;;;;;;;12.77;11.48;;;12.70;99.90;;;;;;5020327;28;20053;-64
2023/09/16 03:14:15;;;;;;;11.05;10.15;;;12.60;99.90;;;;;;5030746;28;20026;-64
2023/09/16 03:16:41;;;;;;;14.63;13.10;;;12.60;99.90;;;;;;5025877;28;20431;-64
2023/09/16 03:19:08;;;;;;;14.32;12.90;;;12.60;99.90;;;;;;5020169;28;20460;-64
2023/09/16 03:21:34;;;;;;;15.65;14.05;;;12.60;99.90;;;;;;5010741;28;20069;-64
2023/09/16 03:23:59;;;;;;;18.10;16.27;;;12.60;99.90;;;;;;5003453;28;20046;-64
2023/09/16 03:26:26;;;;;;;16.73;15.02;;;12.60;99.90;;;;;;5000273;28;20049;-65
2023/09/16 03:28:53;;;;;;;19.13;17.33;;;12.60;99.90;;;;;;5002069;28;20056;-64
2023/09/16 03:31:19;;;;;;;17.77;15.98;;;12.60;99.90;;;;;;5021932;28;20069;-64
2023/09/16 03:33:45;;;;;;;19.48;17.67;;;12.60;99.90;;;;;;5034943;28;20503;-64
2023/09/16 03:36:11;;;;;;;23.13;20.73;;;12.60;99.90;;;;;;5020873;28;20038;-64
2023/09/16 03:38:49;;;;;;;22.98;20.67;;;12.50;99.90;;;;;;5020488;28;20525;-65
2023/09/16 03:41:15;;;;;;;20.00;18.10;;;12.60;99.90;;;;;;5028289;28;20618;-65
2023/09/16 03:43:41;;;;;;;20.15;18.15;;;12.50;99.90;;;;;;5000802;28;20054;-64
2023/09/16 03:46:07;;;;;;;17.92;16.23;;;12.50;99.90;;;;;;5013863;28;20512;-64
2023/09/16 03:48:33;;;;;;;21.17;19.20;;;12.50;99.90;;;;;;5005331;28;20053;-65
2023/09/16 03:50:58;;;;;;;21.67;19.67;;;12.50;99.90;;;;;;5000315;28;20042;-65
2023/09/16 03:53:27;;;;;;;18.80;17.10;;;12.50;99.90;;;;;;4999049;28;20540;-65
2023/09/16 03:55:53;;;;;;;16.13;14.77;;;12.50;99.90;;;;;;5015965;28;20042;-65
2023/09/16 03:58:19;;;;;;;17.80;16.17;;;12.50;99.90;;;;;;5035223;28;20034;-65
2023/09/16 04:00:45;;;;;;;21.60;19.50;;;12.50;99.90;;;;;;4996914;28;20050;-64
2023/09/16 04:03:11;;;;;;;20.65;18.60;;;12.50;99.90;;;;;;5000320;28;20118;-65
2023/09/16 04:05:37;;;;;;;20.45;18.60;;;12.40;99.90;;;;;;5018683;28;20125;-65
2023/09/16 04:08:03;;;;;;;22.77;20.70;;;12.50;99.90;;;;;;4995913;28;20042;-65
2023/09/16 04:10:29;;;;;;;24.75;22.40;;;12.40;99.90;;;;;;5002808;28;20049;-65
2023/09/16 04:12:54;;;;;;;23.23;21.02;;;12.40;99.90;;;;;;5034371;28;20037;-65
2023/09/16 04:15:20;;;;;;;25.10;22.63;;;12.40;99.90;;;;;;4988605;28;20037;-65
2023/09/16 04:17:46;;;;;;;24.25;22.02;;;12.40;99.90;;;;;;4994484;28;20179;-65
2023/09/16 04:20:12;;;;;;;25.20;22.65;;;12.40;99.90;;;;;;4989586;28;20038;-65
2023/09/16 04:22:37;;;;;;;25.88;23.48;;;12.40;99.90;;;;;;4999004;28;20100;-65
2023/09/16 04:25:03;;;;;;;22.50;20.45;;;12.40;99.90;;;;;;5018737;28;20092;-65
2023/09/16 04:27:29;;;;;;;27.70;25.10;;;12.40;99.90;;;;;;5001547;28;20562;-65
2023/09/16 04:29:55;;;;;;;23.50;21.33;;;12.40;99.90;;;;;;5011869;28;20089;-65
2023/09/16 04:32:20;;;;;;;24.45;22.25;;;12.40;99.90;;;;;;5023652;28;21491;-64
2023/09/16 04:34:46;;;;;;;23.60;21.40;;;12.40;99.90;;;;;;5004114;28;20042;-65
2023/09/16 04:37:12;;;;;;;24.27;22.13;;;12.40;99.90;;;;;;4973276;28;20046;-64
2023/09/16 04:39:38;;;;;;;22.55;20.35;;;12.40;99.90;;;;;;4987537;28;20385;-65
2023/09/16 04:42:04;;;;;;;26.27;23.88;;;12.40;99.90;;;;;;5003847;28;20129;-65
2023/09/16 04:44:38;;;;;;;23.38;21.23;;;12.40;99.90;;;;;;4990789;28;20054;-65
2023/09/16 04:47:07;;;;;;;21.40;19.52;;;12.30;99.90;;;;;;5009996;28;20050;-65
2023/09/16 04:49:33;;;;;;;20.23;18.33;;;12.30;99.90;;;;;;5002410;28;20491;-65
2023/09/16 04:51:59;;;;;;;25.27;22.98;;;12.30;99.90;;;;;;4976712;28;20034;-65
2023/09/16 04:54:26;;;;;;;23.83;21.63;;;12.30;99.90;;;;;;5017897;28;20048;-65
2023/09/16 04:56:51;;;;;;;24.73;22.33;;;12.30;99.90;;;;;;5015086;28;21542;-65
2023/09/16 04:59:17;;;;;;;29.17;26.25;;;12.30;99.90;;;;;;5034948;28;20096;-65
2023/09/16 05:01:44;;;;;;;25.40;23.00;;;12.30;99.90;;;;;;4971620;28;20124;-65
2023/09/16 05:04:10;;;;;;;28.75;25.83;;;12.30;99.90;;;;;;5003142;28;20076;-65
2023/09/16 05:06:36;;;;;;;28.27;25.38;;;12.30;99.90;;;;;;5004888;28;20042;-65
2023/09/16 05:09:02;;;;;;;26.50;23.95;;;12.30;99.90;;;;;;4995677;28;20089;-65
2023/09/16 05:11:27;;;;;;;27.58;24.73;;;12.30;99.90;;;;;;4997597;28;20049;-65
2023/09/16 05:13:53;;;;;;;26.52;23.58;;;12.30;99.90;;;;;;5013407;28;20065;-64
2023/09/16 05:16:19;;;;;;;25.85;23.27;;;12.30;99.90;;;;;;5005342;28;20144;-65
2023/09/16 05:18:44;;;;;;;24.92;22.42;;;12.30;99.90;;;;;;5018435;28;20053;-65
2023/09/16 05:21:10;;;;;;;26.67;23.50;;;12.30;99.90;;;;;;4999788;28;20144;-64
2023/09/16 05:23:37;;;;;;;25.95;23.02;;;12.30;99.90;;;;;;5021312;28;20042;-65
2023/09/16 05:26:05;;;;;;;27.88;25.10;;;12.30;99.90;;;;;;5012744;28;20448;-65
2023/09/16 05:28:31;;;;;;;26.70;23.90;;;12.30;99.90;;;;;;5028625;28;20048;-65
2023/09/16 05:30:57;;;;;;;27.55;24.60;;;12.30;99.90;;;;;;4992582;28;20038;-65
2023/09/16 05:33:24;;;;;;;27.50;24.25;;;12.30;99.90;;;;;;4985521;28;20124;-65
2023/09/16 05:35:51;;;;;;;21.55;19.15;;;12.30;99.90;;;;;;4991226;28;20163;-65
2023/09/16 05:38:17;;;;;;;19.58;17.67;;;12.30;99.90;;;;;;5044602;28;20034;-65
2023/09/16 05:40:42;;;;;;;25.60;23.00;;;12.30;99.90;;;;;;4970163;28;20053;-65
2023/09/16 05:43:08;;;;;;;25.38;22.98;;;12.20;99.90;;;;;;4999042;28;20046;-65
2023/09/16 05:45:36;;;;;;;19.67;17.88;;;12.20;99.90;;;;;;5019075;28;20511;-65
2023/09/16 05:48:02;;;;;;;21.20;19.20;;;12.20;99.90;;;;;;4992937;28;20049;-65
2023/09/16 05:50:29;;;;;;;21.48;19.48;;;12.20;99.90;;;;;;5007832;28;20077;-65
2023/09/16 05:52:55;;;;;;;18.33;16.65;;;12.20;99.90;;;;;;5036342;28;20092;-64
2023/09/16 05:55:21;;;;;;;15.85;14.65;;;12.10;99.90;;;;;;5019850;28;20049;-65
2023/09/16 05:57:46;;;;;;;17.88;16.38;;;12.10;99.90;;;;;;5006756;28;20076;-65
2023/09/16 06:00:12;;;;;;;16.27;14.98;;;12.00;99.90;;;;;;5039676;28;20124;-65
2023/09/16 06:02:41;;;;;;;14.00;12.70;;;12.00;99.90;;;;;;4990481;28;20045;-65
2023/09/16 06:05:08;;;;;;;16.13;14.73;;;12.00;99.90;;;;;;5002397;28;20076;-65
2023/09/16 06:07:35;;;;;;;17.90;16.40;;;12.00;99.90;;;;;;4999975;28;20491;-65
2023/09/16 06:10:01;;;;;;;18.55;16.95;;;12.00;99.90;;;;;;4988666;28;20042;-65
2023/09/16 06:12:26;;;;;;;15.48;14.18;;;12.00;99.90;;;;;;5021048;28;20052;-65
2023/09/16 06:14:52;;;;;;;19.48;17.75;;;12.00;99.90;;;;;;5006498;28;20038;-66
2023/09/16 06:17:19;;;;;;;16.55;15.05;;;12.10;99.90;;;;;;5022793;28;20041;-65
2023/09/16 06:19:45;;;;;;;19.42;17.73;;;12.10;99.90;;;;;;5002121;28;20050;-65
2023/09/16 06:22:13;;;;;;;21.90;19.80;;;12.10;99.90;;;;;;5030117;28;20143;-65
2023/09/16 06:24:39;;;;;;;20.65;18.55;;;12.20;99.90;;;;;;5021872;28;20042;-65
2023/09/16 06:27:05;;;;;;;20.70;18.80;;;12.20;99.90;;;;;;5035411;28;20045;-65
2023/09/16 06:29:30;;;;;;;22.58;19.92;;;12.30;99.90;;;;;;4989346;28;20104;-65
2023/09/16 06:31:56;;;;;;;20.77;18.95;;;12.30;99.90;;;;;;5016192;28;20418;-65
2023/09/16 06:34:22;;;;;;;23.17;20.88;;;12.40;99.90;;;;;;4975810;28;20030;-65
2023/09/16 06:36:48;;;;;;;23.02;20.73;;;12.50;99.90;;;;;;5020566;28;20520;-65
2023/09/16 06:39:13;;;;;;;25.30;22.92;;;12.40;99.90;;;;;;5039282;28;20069;-65
2023/09/16 06:41:39;;;;;;;24.10;21.83;;;12.50;99.90;;;;;;5027395;28;20053;-65
2023/09/16 06:44:05;;;;;;;26.00;23.27;;;12.50;99.90;;;;;;5043389;28;20064;-65
2023/09/16 06:46:30;;;;;;;30.23;27.20;;;12.60;99.90;;;;;;5039445;28;20054;-65
2023/09/16 06:48:56;;;;;;;28.65;25.85;;;12.70;99.90;;;;;;5020243;28;20117;-65
2023/09/16 06:51:22;;;;;;;24.92;22.65;;;12.70;99.90;;;;;;5037267;28;20034;-65
2023/09/16 06:53:48;;;;;;;30.65;27.75;;;12.80;99.90;;;;;;5005962;28;20037;-65
2023/09/16 06:56:13;;;;;;;30.50;27.50;;;12.80;99.90;;;;;;5023529;28;20109;-65
2023/09/16 06:58:39;;;;;;;27.40;24.65;;;12.90;99.90;;;;;;5001961;28;20483;-65
2023/09/16 07:01:09;;;;;;;27.33;24.55;;;13.00;99.90;;;;;;5028921;28;20042;-65
2023/09/16 07:03:35;;;;;;;28.73;25.65;;;13.10;99.90;;;;;;5007533;28;20046;-65
2023/09/16 07:06:01;;;;;;;25.70;22.70;;;13.10;99.90;;;;;;5019910;28;20046;-64
2023/09/16 07:08:33;;;;;;;30.27;27.38;;;13.20;99.90;;;;;;5001520;28;20151;-65
2023/09/16 07:10:59;;;;;;;26.93;24.23;;;13.30;99.90;;;;;;5036103;28;20491;-65
2023/09/16 07:13:26;;;;;;;27.60;24.83;;;13.40;99.90;;;;;;5006559;28;20048;-65
2023/09/16 07:15:53;;;;;;;26.83;24.10;;;13.50;99.90;;;;;;5039107;28;20075;-64
2023/09/16 07:18:19;;;;;;;26.70;23.90;;;13.60;99.90;;;;;;5025771;28;20057;-65
2023/09/16 07:20:45;;;;;;;28.80;25.27;;;13.70;99.90;;;;;;5004915;28;20119;-64
2023/09/16 07:23:33;;;;;;;26.83;24.08;;;13.80;99.90;;;;;;5005582;28;20530;-64
2023/09/16 07:25:59;;;;;;;28.40;25.42;;;13.90;99.90;;;;;;5037865;28;20096;-65
2023/09/16 07:28:27;;;;;;;24.15;21.42;;;14.10;99.90;;;;;;5033692;28;20073;-66
2023/09/16 07:30:53;;;;;;;25.05;22.55;;;14.20;99.90;;;;;;5023444;28;20045;-65
2023/09/16 07:33:19;;;;;;;25.20;22.60;;;14.20;99.90;;;;;;5003606;28;20037;-65
2023/09/16 07:35:45;;;;;;;26.90;23.92;;;14.30;99.90;;;;;;5021888;28;20041;-65
2023/09/16 07:38:10;;;;;;;28.45;25.55;;;14.40;99.90;;;;;;5020304;28;20124;-65
2023/09/16 07:40:38;;;;;;;26.35;23.55;;;14.50;99.90;;;;;;4997723;28;20042;-65
2023/09/16 07:43:08;;;;;;;28.48;25.15;;;14.60;99.90;;;;;;5003456;28;20046;-65
2023/09/16 07:45:34;;;;;;;25.35;22.75;;;14.70;99.90;;;;;;5041011;28;20141;-65
2023/09/16 07:48:03;;;;;;;26.08;23.48;;;14.80;99.90;;;;;;5025832;28;20053;-65
2023/09/16 07:50:29;;;;;;;26.27;23.60;;;14.90;99.90;;;;;;4994799;28;20041;-68
2023/09/16 07:52:55;;;;;;;26.52;23.63;;;14.90;99.90;;;;;;5028010;28;20034;-69
2023/09/16 07:55:20;;;;;;;27.73;24.83;;;15.00;99.90;;;;;;5028084;28;20503;-65
2023/09/16 07:57:46;;;;;;;26.80;24.00;;;15.10;99.90;;;;;;5010632;28;20061;-65
2023/09/16 08:00:12;;;;;;;27.67;23.73;;;15.20;99.90;;;;;;5039311;28;20066;-65
2023/09/16 08:02:38;;;;;;;26.00;23.40;;;15.30;99.90;;;;;;4997968;28;20524;-65
2023/09/16 08:05:04;;;;;;;26.33;23.63;;;15.30;99.90;;;;;;4993502;28;20133;-65
2023/09/16 08:07:34;;;;;;;26.35;23.63;;;15.40;99.90;;;;;;5026333;28;20065;-65
2023/09/16 08:10:01;;;;;;;28.50;24.48;;;15.40;99.90;;;;;;5011303;28;20049;-65
2023/09/16 08:12:27;;;;;;;27.27;23.40;;;15.50;99.90;;;;;;4977664;28;20116;-65
2023/09/16 08:14:53;;;;;;;27.60;24.60;;;15.60;99.90;;;;;;5010592;28;20479;-65
2023/09/16 08:17:18;;;;;;;31.85;24.98;;;15.70;99.90;;;;;;5019450;28;20041;-65
2023/09/16 08:19:44;;;;;;;27.45;23.95;;;15.70;99.90;;;;;;4989649;28;20041;-65
2023/09/16 08:22:10;;;;;;;26.95;23.02;;;15.80;99.90;;;;;;5016422;28;20046;-65
2023/09/16 08:24:35;;;;;;;25.83;22.40;;;16.00;99.90;;;;;;5034090;28;20083;-65
2023/09/16 08:27:01;;;;;;;25.80;20.45;;;16.10;99.90;;;;;;5019326;28;20046;-65
2023/09/16 08:29:27;;;;;;;23.15;20.83;;;16.30;99.90;;;;;;5020426;28;20052;-65
2023/09/16 08:31:53;;;;;;;23.27;21.10;;;16.50;99.90;;;;;;5019951;28;20073;-65
2023/09/16 08:34:19;;;;;;;23.77;21.35;;;16.80;99.90;;;;;;4993565;28;20566;-65
2023/09/16 08:36:45;;;;;;;22.48;20.17;;;16.90;99.90;;;;;;4991473;28;20042;-65
2023/09/16 08:39:10;;;;;;;22.83;20.42;;;16.90;99.90;;;;;;5014166;28;20050;-65
2023/09/16 08:41:42;;;;;;;22.75;20.45;;;16.90;99.90;;;;;;5013537;28;20042;-65
2023/09/16 08:44:10;;;;;;;23.05;20.73;;;17.10;99.90;;;;;;5042492;28;20060;-65
2023/09/16 08:46:42;;;;;;;21.88;19.65;;;17.20;99.90;;;;;;5024116;28;20039;-65
2023/09/16 08:49:12;;;;;;;21.70;19.38;;;17.40;99.90;;;;;;5003218;28;20045;-65
2023/09/16 08:51:42;;;;;;;20.20;18.10;;;17.50;99.90;;;;;;5000898;28;21176;-65
2023/09/16 08:54:10;;;;;;;19.40;17.25;;;17.60;99.90;;;;;;5004689;28;20086;-65
2023/09/16 08:56:37;;;;;;;19.23;16.98;;;17.70;99.90;;;;;;5040122;28;20042;-65
2023/09/16 08:59:03;;;;;;;18.52;16.73;;;17.90;99.90;;;;;;5000097;28;20046;-65
2023/09/16 09:01:29;;;;;;;20.23;17.50;;;18.10;99.90;;;;;;5042278;28;20050;-65
2023/09/16 09:03:55;;;;;;;18.17;15.65;;;18.20;99.90;;;;;;5008464;28;20042;-65
2023/09/16 09:06:22;;;;;;;19.08;16.65;;;18.40;99.90;;;;;;4998954;28;20132;-65
2023/09/16 09:08:48;;;;;;;19.88;17.75;;;18.60;99.90;;;;;;5009905;28;20049;-65
2023/09/16 09:11:15;;;;;;;30.30;22.33;;;18.70;99.90;;;;;;4993996;28;20037;-65
2023/09/16 09:13:48;;;;;;;18.15;16.27;;;18.80;99.90;;;;;;4992346;28;20052;-66
2023/09/16 09:16:19;;;;;;;19.52;17.52;;;18.80;99.90;;;;;;4991337;28;20360;-65
2023/09/16 09:18:47;;;;;;;18.70;16.80;;;18.80;99.90;;;;;;5011438;28;20046;-64
2023/09/16 09:21:13;;;;;;;17.55;15.68;;;18.80;99.90;;;;;;5005669;28;20392;-65
2023/09/16 09:23:39;;;;;;;17.98;16.17;;;18.70;99.90;;;;;;4985965;28;20038;-65
2023/09/16 09:26:05;;;;;;;19.48;15.98;;;18.70;99.90;;;;;;5022583;28;20052;-65
2023/09/16 09:28:33;;;;;;;17.70;15.90;;;18.80;99.90;;;;;;4991728;28;20458;-65
2023/09/16 09:31:00;;;;;;;18.80;15.75;;;18.80;99.90;;;;;;5034084;28;20501;-65
2023/09/16 09:33:27;;;;;;;16.80;15.10;;;18.90;99.90;;;;;;5021330;28;20042;-65
2023/09/16 09:36:13;;;;;;;16.83;14.93;;;19.00;99.90;;;;;;5009221;28;20078;-65
2023/09/16 09:38:43;;;;;;;16.73;15.13;;;19.20;99.90;;;;;;5039442;28;20061;-65
2023/09/16 09:41:09;;;;;;;16.05;14.45;;;19.40;99.90;;;;;;5023809;28;20049;-65
2023/09/16 09:43:35;;;;;;;16.05;14.40;;;19.60;99.90;;;;;;5025277;28;20060;-65
2023/09/16 09:46:02;;;;;;;17.25;15.55;;;19.80;99.90;;;;;;5004118;28;20057;-65
2023/09/16 09:48:32;;;;;;;16.70;13.65;;;20.00;99.90;;;;;;5036423;28;20042;-65
2023/09/16 09:51:01;;;;;;;16.85;14.23;;;20.00;99.90;;;;;;4990082;28;20046;-65
2023/09/16 09:53:28;;;;;;;17.27;14.57;;;20.10;99.90;;;;;;4995772;28;20038;-65
2023/09/16 09:55:54;;;;;;;17.38;14.30;;;20.10;99.90;;;;;;5004892;28;20046;-65
2023/09/16 09:58:20;;;;;;;14.60;13.13;;;20.10;99.90;;;;;;5007333;28;20125;-65
2023/09/16 10:00:47;;;;;;;16.63;13.88;;;20.20;99.90;;;;;;5020630;28;20065;-65
2023/09/16 10:03:14;;;;;;;15.32;13.73;;;20.30;99.90;;;;;;5009842;28;20049;-65
2023/09/16 10:05:40;;;;;;;14.88;13.38;;;20.40;99.90;;;;;;5005257;28;20410;-67
2023/09/16 10:08:06;;;;;;;16.83;13.65;;;20.60;99.90;;;;;;5025403;28;20050;-69
2023/09/16 10:10:34;;;;;;;14.23;12.82;;;20.80;99.90;;;;;;5055410;28;20044;-66
2023/09/16 10:13:00;;;;;;;15.45;13.85;;;20.90;99.90;;;;;;5035427;28;20049;-68
2023/09/16 10:15:34;;;;;;;18.58;15.05;;;21.10;99.90;;;;;;5020392;28;20042;-69
2023/09/16 10:18:00;;;;;;;19.40;14.43;;;21.30;99.90;;;;;;5006713;28;20046;-71
2023/09/16 10:20:43;;;;;;;17.17;15.32;;;21.50;99.90;;;;;;4990927;28;20038;-71
2023/09/16 10:23:10;;;;;;;15.82;14.13;;;21.60;99.90;;;;;;5019220;28;20042;-70
2023/09/16 10:25:36;;;;;;;14.55;13.07;;;21.80;99.90;;;;;;5053057;28;20406;-69
2023/09/16 10:28:04;;;;;;;14.68;13.02;;;22.00;99.90;;;;;;5022993;28;20045;-70
2023/09/16 10:30:32;;;;;;;12.80;11.38;;;22.10;99.90;;;;;;5001754;28;20054;-68
2023/09/16 10:33:18;;;;;;;14.18;11.52;;;22.20;99.90;;;;;;5018680;28;20097;-69
2023/09/16 10:35:44;;;;;;;13.88;12.07;;;22.30;99.90;;;;;;5004541;28;20506;-72
2023/09/16 10:38:11;;;;;;;11.93;10.77;;;22.40;99.90;;;;;;5038318;28;20049;-69
2023/09/16 10:40:39;;;;;;;13.88;11.13;;;22.50;99.90;;;;;;5004233;28;20515;-67
2023/09/16 10:43:05;;;;;;;13.15;11.18;;;22.60;99.90;;;;;;5010498;28;20033;-67
2023/09/16 10:45:31;;;;;;;12.20;10.90;;;22.70;99.90;;;;;;4986391;28;20131;-69
2023/09/16 10:48:01;;;;;;;11.73;10.52;;;22.80;99.90;;;;;;5002386;28;20042;-69
2023/09/16 10:50:30;;;;;;;9.95;8.95;;;22.80;99.90;;;;;;5006095;28;20042;-69
2023/09/16 10:53:10;;;;;;;10.80;9.40;;;22.80;99.90;;;;;;5035824;28;20042;-68
2023/09/16 10:55:48;;;;;;;10.95;8.77;;;23.00;99.90;;;;;;5005407;28;20502;-68
2023/09/16 10:58:21;;;;;;;10.43;9.43;;;23.10;99.90;;;;;;5019154;28;20122;-69
2023/09/16 11:00:54;;;;;;;15.68;9.13;;;23.20;99.90;;;;;;4990473;28;20820;-68
2023/09/16 11:03:24;;;;;;;10.02;8.80;;;23.30;99.90;;;;;;5024670;28;20058;-67
2023/09/16 11:05:50;;;;;;;11.55;8.32;;;23.40;99.90;;;;;;4998926;28;20085;-67
2023/09/16 11:08:16;;;;;;;10.90;9.43;;;23.40;99.90;;;;;;5034763;28;20084;-67
2023/09/16 11:10:42;;;;;;;10.63;8.95;;;23.50;99.90;;;;;;5014198;28;20092;-67
2023/09/16 11:13:08;;;;;;;10.75;9.40;;;23.50;99.90;;;;;;5021374;28;20045;-66
2023/09/16 11:15:35;;;;;;;10.38;9.25;;;23.50;99.90;;;;;;5035699;28;20049;-66
2023/09/16 11:18:07;;;;;;;13.13;10.48;;;23.50;99.90;;;;;;5003182;28;20056;-67
2023/09/16 11:20:33;;;;;;;;;;;23.60;99.90;;;;;;4987040;28;20095;-67
2023/09/16 11:23:06;;;;;;;10.55;9.45;;;23.50;99.90;;;;;;4989820;28;19930;-67
2023/09/16 11:25:37;;;;;;;11.85;9.30;;;23.40;99.90;;;;;;5022615;28;20089;-66
2023/09/16 11:28:10;;;;;;;10.07;9.07;;;23.40;99.90;;;;;;5000492;28;20373;-66
2023/09/16 11:30:37;;;;;;;11.30;9.32;;;23.50;99.90;;;;;;5038869;28;20049;-67
2023/09/16 11:33:04;;;;;;;9.90;8.90;;;23.50;99.90;;;;;;5023487;28;20084;-67
2023/09/16 11:35:30;;;;;;;11.73;9.32;;;23.70;99.90;;;;;;5024156;28;20033;-67
2023/09/16 11:37:56;;;;;;;13.75;8.68;;;23.90;99.90;;;;;;4989839;28;20403;-66
2023/09/16 11:40:32;;;;;;;10.68;8.27;;;24.00;99.90;;;;;;4994240;28;20050;-66
2023/09/16 11:42:59;;;;;;;10.95;9.50;;;24.20;99.90;;;;;;4995512;28;20526;-67
2023/09/16 11:45:27;;;;;;;10.32;9.10;;;24.30;99.90;;;;;;5022315;28;20107;-68
2023/09/16 11:47:53;;;;;;;10.48;9.38;;;24.30;99.90;;;;;;5023298;28;20049;-66
2023/09/16 11:50:26;;;;;;;10.77;8.45;;;24.20;99.90;;;;;;5004632;28;20042;-67
2023/09/16 11:52:53;;;;;;;11.35;8.95;;;24.20;99.90;;;;;;5015796;28;20046;-68
2023/09/16 11:55:19;;;;;;;11.10;8.02;;;24.30;99.90;;;;;;5016372;28;20081;-67
2023/09/16 11:57:47;;;;;;;11.63;7.00;;;24.40;99.90;;;;;;4996515;28;20439;-67
2023/09/16 12:00:13;;;;;;;9.55;7.38;;;24.60;99.90;;;;;;5032852;28;20043;-67
2023/09/16 12:02:41;;;;;;;8.95;8.05;;;24.70;99.90;;;;;;5038706;28;20139;-67
2023/09/16 12:05:09;;;;;;;11.07;8.98;;;24.80;99.90;;;;;;5018998;28;20505;-68
2023/09/16 12:07:36;;;;;;;10.00;7.68;;;24.90;99.90;;;;;;5009097;28;20045;-66
2023/09/16 12:10:03;;;;;;;9.80;6.72;;;24.90;99.90;;;;;;5037285;28;20438;-65
2023/09/16 12:12:29;;;;;;;9.75;6.65;;;24.90;99.90;;;;;;5001957;28;20519;-66
2023/09/16 12:15:02;;;;;;;10.25;7.03;;;24.90;99.90;;;;;;5005912;28;20045;-67
2023/09/16 12:17:28;;;;;;;9.43;6.95;;;24.90;99.90;;;;;;5017495;28;20048;-66
2023/09/16 12:19:55;;;;;;;8.02;6.82;;;24.90;99.90;;;;;;4996013;28;20054;-66
2023/09/16 12:22:21;;;;;;;8.07;6.97;;;24.90;99.90;;;;;;5026903;28;20388;-67
2023/09/16 12:24:51;;;;;;;8.18;6.53;;;24.90;99.90;;;;;;5033057;28;20131;-66
2023/09/16 12:27:17;;;;;;;8.70;6.57;;;24.90;99.90;;;;;;5038333;28;20041;-66